sensor_id;sensor_type;location;lat;lon;timestamp;temperature;humidity
8541;DHT22;4308;51.294;6.590;2022-08-19T05:38:30;25.90;99.90
8541;DHT22;4308;51.294;6.590;2022-08-19T05:40:57;26.20;99.90
8541;DHT22;4308;51.294;6.590;2022-08-19T05:43:25;26.60;99.90
8541;DHT22;4308;51.294;6.590;2022-08-19T05:45:52;27.10;99.60
8541;DHT22;4308;51.294;6.590;2022-08-19T05:48:19;27.50;98.70
8541;DHT22;4308;51.294;6.590;2022-08-19T05:50:46;28.30;97.90
8541;DHT22;4308;51.294;6.590;2022-08-19T05:53:14;28.90;96.80
8541;DHT22;4308;51.294;6.590;2022-08-19T05:55:41;29.80;95.80
8541;DHT22;4308;51.294;6.590;2022-08-19T05:58:09;30.60;94.50
8541;DHT22;4308;51.294;6.590;2022-08-19T06:00:36;31.10;93.60
8541;DHT22;4308;51.294;6.590;2022-08-19T06:03:04;31.40;92.90
8541;DHT22;4308;51.294;6.590;2022-08-19T06:05:38;31.80;92.00
8541;DHT22;4308;51.294;6.590;2022-08-19T06:08:16;32.10;91.60
8541;DHT22;4308;51.294;6.590;2022-08-19T06:10:43;32.20;91.10
8541;DHT22;4308;51.294;6.590;2022-08-19T06:13:10;32.70;90.60
8541;DHT22;4308;51.294;6.590;2022-08-19T06:18:05;33.20;87.80
8541;DHT22;4308;51.294;6.590;2022-08-19T06:23:22;33.50;87.50
8541;DHT22;4308;51.294;6.590;2022-08-19T06:25:50;33.70;88.30
8541;DHT22;4308;51.294;6.590;2022-08-19T06:28:17;33.70;85.50
8541;DHT22;4308;51.294;6.590;2022-08-19T06:30:45;32.50;86.80
8541;DHT22;4308;51.294;6.590;2022-08-19T06:33:12;30.60;89.20
8541;DHT22;4308;51.294;6.590;2022-08-19T06:35:40;29.10;90.90
8541;DHT22;4308;51.294;6.590;2022-08-19T06:38:08;28.00;92.30
8541;DHT22;4308;51.294;6.590;2022-08-19T06:40:36;27.10;93.80
8541;DHT22;4308;51.294;6.590;2022-08-19T06:43:03;26.40;94.80
8541;DHT22;4308;51.294;6.590;2022-08-19T06:45:37;25.90;95.50
8541;DHT22;4308;51.294;6.590;2022-08-19T06:50:33;25.00;96.60
8541;DHT22;4308;51.294;6.590;2022-08-19T06:53:02;25.00;97.10
8541;DHT22;4308;51.294;6.590;2022-08-19T06:55:30;24.70;97.40
8541;DHT22;4308;51.294;6.590;2022-08-19T06:58:02;24.50;97.90
8541;DHT22;4308;51.294;6.590;2022-08-19T07:00:30;24.50;98.20
8541;DHT22;4308;51.294;6.590;2022-08-19T07:03:02;24.50;98.40
8541;DHT22;4308;51.294;6.590;2022-08-19T07:05:42;24.40;98.80
8541;DHT22;4308;51.294;6.590;2022-08-19T07:08:13;24.40;98.80
8541;DHT22;4308;51.294;6.590;2022-08-19T07:10:44;24.60;98.80
8541;DHT22;4308;51.294;6.590;2022-08-19T07:13:12;24.60;98.60
8541;DHT22;4308;51.294;6.590;2022-08-19T07:15:39;24.60;98.40
8541;DHT22;4308;51.294;6.590;2022-08-19T07:18:07;24.70;98.30
8541;DHT22;4308;51.294;6.590;2022-08-19T07:20:39;24.80;98.30
8541;DHT22;4308;51.294;6.590;2022-08-19T07:23:08;24.90;98.30
8541;DHT22;4308;51.294;6.590;2022-08-19T07:25:42;25.10;98.20
8541;DHT22;4308;51.294;6.590;2022-08-19T07:28:10;25.30;98.00
8541;DHT22;4308;51.294;6.590;2022-08-19T07:30:51;25.30;98.00
8541;DHT22;4308;51.294;6.590;2022-08-19T07:33:19;25.60;97.90
8541;DHT22;4308;51.294;6.590;2022-08-19T07:35:46;26.00;97.70
8541;DHT22;4308;51.294;6.590;2022-08-19T07:38:14;26.40;97.20
8541;DHT22;4308;51.294;6.590;2022-08-19T07:40:43;26.20;96.80
8541;DHT22;4308;51.294;6.590;2022-08-19T07:43:11;26.30;96.90
8541;DHT22;4308;51.294;6.590;2022-08-19T07:45:43;26.30;97.10
8541;DHT22;4308;51.294;6.590;2022-08-19T07:48:10;26.20;97.00
8541;DHT22;4308;51.294;6.590;2022-08-19T07:50:38;26.30;96.90
8541;DHT22;4308;51.294;6.590;2022-08-19T07:53:05;26.20;96.80
8541;DHT22;4308;51.294;6.590;2022-08-19T07:55:33;26.20;96.80
8541;DHT22;4308;51.294;6.590;2022-08-19T07:58:11;26.30;96.70
8541;DHT22;4308;51.294;6.590;2022-08-19T08:00:39;26.20;96.50
8541;DHT22;4308;51.294;6.590;2022-08-19T08:03:06;26.10;96.50
8541;DHT22;4308;51.294;6.590;2022-08-19T08:05:33;26.00;96.60
8541;DHT22;4308;51.294;6.590;2022-08-19T08:08:01;25.90;96.80
8541;DHT22;4308;51.294;6.590;2022-08-19T08:10:29;26.00;96.70
8541;DHT22;4308;51.294;6.590;2022-08-19T08:12:56;26.20;96.60
8541;DHT22;4308;51.294;6.590;2022-08-19T08:15:37;26.40;96.20
8541;DHT22;4308;51.294;6.590;2022-08-19T08:18:11;26.60;95.90
8541;DHT22;4308;51.294;6.590;2022-08-19T08:20:38;26.80;95.70
8541;DHT22;4308;51.294;6.590;2022-08-19T08:23:06;27.00;95.30
8541;DHT22;4308;51.294;6.590;2022-08-19T08:25:34;27.20;95.10
8541;DHT22;4308;51.294;6.590;2022-08-19T08:28:03;27.40;95.30
8541;DHT22;4308;51.294;6.590;2022-08-19T08:30:31;27.50;94.60
8541;DHT22;4308;51.294;6.590;2022-08-19T08:32:59;27.40;94.40
8541;DHT22;4308;51.294;6.590;2022-08-19T08:35:28;27.50;94.30
8541;DHT22;4308;51.294;6.590;2022-08-19T08:37:56;27.50;94.30
8541;DHT22;4308;51.294;6.590;2022-08-19T08:43:09;27.20;94.00
8541;DHT22;4308;51.294;6.590;2022-08-19T08:45:46;27.10;94.00
8541;DHT22;4308;51.294;6.590;2022-08-19T08:48:26;27.00;94.20
8541;DHT22;4308;51.294;6.590;2022-08-19T08:50:57;27.10;94.20
8541;DHT22;4308;51.294;6.590;2022-08-19T08:53:25;27.00;93.80
8541;DHT22;4308;51.294;6.590;2022-08-19T08:56:03;27.00;93.90
8541;DHT22;4308;51.294;6.590;2022-08-19T08:58:48;27.00;93.90
8541;DHT22;4308;51.294;6.590;2022-08-19T09:01:20;27.00;93.80
8541;DHT22;4308;51.294;6.590;2022-08-19T09:03:48;27.10;93.80
8541;DHT22;4308;51.294;6.590;2022-08-19T09:11:50;27.10;92.70
8541;DHT22;4308;51.294;6.590;2022-08-19T09:17:18;27.00;92.70
8541;DHT22;4308;51.294;6.590;2022-08-19T09:20:14;27.00;93.20
8541;DHT22;4308;51.294;6.590;2022-08-19T09:22:43;27.00;92.90
8541;DHT22;4308;51.294;6.590;2022-08-19T09:25:14;27.10;93.20
8541;DHT22;4308;51.294;6.590;2022-08-19T09:27:43;27.20;93.00
8541;DHT22;4308;51.294;6.590;2022-08-19T09:30:14;27.20;92.70
8541;DHT22;4308;51.294;6.590;2022-08-19T09:32:43;27.30;92.40
8541;DHT22;4308;51.294;6.590;2022-08-19T09:35:12;27.30;92.40
8541;DHT22;4308;51.294;6.590;2022-08-19T09:37:41;27.40;92.30
8541;DHT22;4308;51.294;6.590;2022-08-19T09:40:10;27.40;92.40
8541;DHT22;4308;51.294;6.590;2022-08-19T09:42:38;27.50;92.10
8541;DHT22;4308;51.294;6.590;2022-08-19T09:45:20;27.40;92.10
8541;DHT22;4308;51.294;6.590;2022-08-19T09:47:52;27.30;92.00
8541;DHT22;4308;51.294;6.590;2022-08-19T09:50:22;27.30;92.20
8541;DHT22;4308;51.294;6.590;2022-08-19T09:52:50;27.20;92.60
8541;DHT22;4308;51.294;6.590;2022-08-19T09:55:25;27.10;91.80
8541;DHT22;4308;51.294;6.590;2022-08-19T09:58:00;27.10;92.30
8541;DHT22;4308;51.294;6.590;2022-08-19T10:00:27;27.10;92.00
8541;DHT22;4308;51.294;6.590;2022-08-19T10:02:55;27.20;92.00
8541;DHT22;4308;51.294;6.590;2022-08-19T10:05:22;27.20;91.80
8541;DHT22;4308;51.294;6.590;2022-08-19T10:07:53;27.10;91.30
8541;DHT22;4308;51.294;6.590;2022-08-19T10:10:22;27.20;91.80
8541;DHT22;4308;51.294;6.590;2022-08-19T10:12:51;27.20;91.70
8541;DHT22;4308;51.294;6.590;2022-08-19T10:15:19;27.20;91.40
8541;DHT22;4308;51.294;6.590;2022-08-19T10:17:55;27.20;91.40
8541;DHT22;4308;51.294;6.590;2022-08-19T10:20:24;27.40;91.40
8541;DHT22;4308;51.294;6.590;2022-08-19T10:22:52;27.40;91.20
8541;DHT22;4308;51.294;6.590;2022-08-19T10:25:19;27.60;91.30
8541;DHT22;4308;51.294;6.590;2022-08-19T10:27:46;27.70;91.20
8541;DHT22;4308;51.294;6.590;2022-08-19T10:30:18;27.80;91.10
8541;DHT22;4308;51.294;6.590;2022-08-19T10:32:46;27.80;91.00
8541;DHT22;4308;51.294;6.590;2022-08-19T10:35:13;27.60;90.90
8541;DHT22;4308;51.294;6.590;2022-08-19T10:37:47;27.50;91.10
8541;DHT22;4308;51.294;6.590;2022-08-19T10:40:23;27.40;90.80
8541;DHT22;4308;51.294;6.590;2022-08-19T10:42:51;27.90;91.10
8541;DHT22;4308;51.294;6.590;2022-08-19T10:45:18;27.90;91.00
8541;DHT22;4308;51.294;6.590;2022-08-19T10:47:45;28.10;90.90
8541;DHT22;4308;51.294;6.590;2022-08-19T10:50:12;28.20;90.40
8541;DHT22;4308;51.294;6.590;2022-08-19T10:52:42;28.40;90.30
8541;DHT22;4308;51.294;6.590;2022-08-19T10:55:21;28.60;90.30
8541;DHT22;4308;51.294;6.590;2022-08-19T10:57:49;28.60;89.80
8541;DHT22;4308;51.294;6.590;2022-08-19T11:00:28;28.80;89.30
8541;DHT22;4308;51.294;6.590;2022-08-19T11:02:56;28.90;89.30
8541;DHT22;4308;51.294;6.590;2022-08-19T11:05:23;29.00;88.70
8541;DHT22;4308;51.294;6.590;2022-08-19T11:07:50;28.90;87.90
8541;DHT22;4308;51.294;6.590;2022-08-19T11:10:18;29.10;88.10
8541;DHT22;4308;51.294;6.590;2022-08-19T11:12:48;29.30;88.10
8541;DHT22;4308;51.294;6.590;2022-08-19T11:15:15;29.50;86.50
8541;DHT22;4308;51.294;6.590;2022-08-19T11:17:43;29.60;86.50
8541;DHT22;4308;51.294;6.590;2022-08-19T11:20:14;29.70;86.10
8541;DHT22;4308;51.294;6.590;2022-08-19T11:22:42;29.70;85.80
8541;DHT22;4308;51.294;6.590;2022-08-19T11:25:10;29.80;84.70
8541;DHT22;4308;51.294;6.590;2022-08-19T11:27:41;29.80;85.40
8541;DHT22;4308;51.294;6.590;2022-08-19T11:30:10;29.90;84.40
8541;DHT22;4308;51.294;6.590;2022-08-19T11:32:40;30.00;84.40
8541;DHT22;4308;51.294;6.590;2022-08-19T11:35:15;30.00;83.70
8541;DHT22;4308;51.294;6.590;2022-08-19T11:37:42;30.00;84.50
8541;DHT22;4308;51.294;6.590;2022-08-19T11:40:10;30.00;84.00
8541;DHT22;4308;51.294;6.590;2022-08-19T11:42:38;29.90;83.30
8541;DHT22;4308;51.294;6.590;2022-08-19T11:45:05;30.10;83.40
8541;DHT22;4308;51.294;6.590;2022-08-19T11:47:33;30.10;82.80
8541;DHT22;4308;51.294;6.590;2022-08-19T11:50:00;30.10;82.20
8541;DHT22;4308;51.294;6.590;2022-08-19T11:52:27;30.10;81.60
8541;DHT22;4308;51.294;6.590;2022-08-19T11:54:54;29.60;82.30
8541;DHT22;4308;51.294;6.590;2022-08-19T11:57:22;28.90;82.50
8541;DHT22;4308;51.294;6.590;2022-08-19T11:59:51;28.50;82.70
8541;DHT22;4308;51.294;6.590;2022-08-19T12:02:19;28.60;82.70
8541;DHT22;4308;51.294;6.590;2022-08-19T12:04:46;28.40;82.50
8541;DHT22;4308;51.294;6.590;2022-08-19T12:07:13;28.50;81.80
8541;DHT22;4308;51.294;6.590;2022-08-19T12:09:40;28.30;83.00
8541;DHT22;4308;51.294;6.590;2022-08-19T12:12:09;28.10;82.70
8541;DHT22;4308;51.294;6.590;2022-08-19T12:14:37;28.40;83.20
8541;DHT22;4308;51.294;6.590;2022-08-19T12:17:05;28.30;82.50
8541;DHT22;4308;51.294;6.590;2022-08-19T12:19:32;28.10;82.90
8541;DHT22;4308;51.294;6.590;2022-08-19T12:22:00;28.30;83.90
8541;DHT22;4308;51.294;6.590;2022-08-19T12:24:30;28.50;83.90
8541;DHT22;4308;51.294;6.590;2022-08-19T12:26:58;28.50;83.00
8541;DHT22;4308;51.294;6.590;2022-08-19T12:29:29;28.50;81.50
8541;DHT22;4308;51.294;6.590;2022-08-19T12:31:58;28.50;81.20
8541;DHT22;4308;51.294;6.590;2022-08-19T12:34:25;28.50;81.50
8541;DHT22;4308;51.294;6.590;2022-08-19T12:36:53;28.60;81.70
8541;DHT22;4308;51.294;6.590;2022-08-19T12:39:20;28.40;80.70
8541;DHT22;4308;51.294;6.590;2022-08-19T12:41:51;28.60;82.30
8541;DHT22;4308;51.294;6.590;2022-08-19T12:44:22;28.50;80.80
8541;DHT22;4308;51.294;6.590;2022-08-19T12:46:58;28.30;80.30
8541;DHT22;4308;51.294;6.590;2022-08-19T12:49:34;28.40;80.50
8541;DHT22;4308;51.294;6.590;2022-08-19T12:52:23;28.40;81.50
8541;DHT22;4308;51.294;6.590;2022-08-19T12:54:52;28.60;81.70
8541;DHT22;4308;51.294;6.590;2022-08-19T12:57:25;28.60;81.50
8541;DHT22;4308;51.294;6.590;2022-08-19T13:02:33;28.60;80.60
8541;DHT22;4308;51.294;6.590;2022-08-19T13:05:06;28.80;82.50
8541;DHT22;4308;51.294;6.590;2022-08-19T13:07:34;29.00;80.10
8541;DHT22;4308;51.294;6.590;2022-08-19T13:10:02;29.10;80.60
8541;DHT22;4308;51.294;6.590;2022-08-19T13:12:29;29.20;80.50
8541;DHT22;4308;51.294;6.590;2022-08-19T13:14:56;29.30;80.30
8541;DHT22;4308;51.294;6.590;2022-08-19T13:17:24;29.40;81.50
8541;DHT22;4308;51.294;6.590;2022-08-19T13:19:51;29.50;80.40
8541;DHT22;4308;51.294;6.590;2022-08-19T13:22:19;29.40;78.70
8541;DHT22;4308;51.294;6.590;2022-08-19T13:24:46;29.50;78.40
8541;DHT22;4308;51.294;6.590;2022-08-19T13:27:14;29.50;77.60
8541;DHT22;4308;51.294;6.590;2022-08-19T13:29:41;29.30;77.60
8541;DHT22;4308;51.294;6.590;2022-08-19T13:32:09;29.10;77.20
8541;DHT22;4308;51.294;6.590;2022-08-19T13:34:40;29.30;78.20
8541;DHT22;4308;51.294;6.590;2022-08-19T13:37:15;29.30;78.80
8541;DHT22;4308;51.294;6.590;2022-08-19T13:39:42;29.20;78.20
8541;DHT22;4308;51.294;6.590;2022-08-19T13:42:09;29.00;76.40
8541;DHT22;4308;51.294;6.590;2022-08-19T13:44:36;29.00;77.00
8541;DHT22;4308;51.294;6.590;2022-08-19T13:47:05;29.10;77.90
8541;DHT22;4308;51.294;6.590;2022-08-19T13:49:36;29.30;77.90
8541;DHT22;4308;51.294;6.590;2022-08-19T13:52:04;29.20;78.00
8541;DHT22;4308;51.294;6.590;2022-08-19T13:54:32;29.30;77.70
8541;DHT22;4308;51.294;6.590;2022-08-19T13:56:59;29.40;77.90
8541;DHT22;4308;51.294;6.590;2022-08-19T13:59:27;29.50;78.30
8541;DHT22;4308;51.294;6.590;2022-08-19T14:01:58;29.60;78.70
8541;DHT22;4308;51.294;6.590;2022-08-19T14:04:26;29.30;77.90
8541;DHT22;4308;51.294;6.590;2022-08-19T14:06:53;29.20;79.30
8541;DHT22;4308;51.294;6.590;2022-08-19T14:09:20;29.20;80.50
8541;DHT22;4308;51.294;6.590;2022-08-19T14:11:47;28.90;80.70
8541;DHT22;4308;51.294;6.590;2022-08-19T14:14:15;28.90;80.90
8541;DHT22;4308;51.294;6.590;2022-08-19T14:16:42;29.10;82.20
8541;DHT22;4308;51.294;6.590;2022-08-19T14:19:09;28.90;81.30
8541;DHT22;4308;51.294;6.590;2022-08-19T14:21:37;29.00;79.80
8541;DHT22;4308;51.294;6.590;2022-08-19T14:24:08;28.80;79.30
8541;DHT22;4308;51.294;6.590;2022-08-19T14:26:35;28.90;76.70
8541;DHT22;4308;51.294;6.590;2022-08-19T14:29:02;29.10;77.00
8541;DHT22;4308;51.294;6.590;2022-08-19T14:31:29;29.10;78.20
8541;DHT22;4308;51.294;6.590;2022-08-19T14:33:57;28.90;78.00
8541;DHT22;4308;51.294;6.590;2022-08-19T14:36:24;29.00;78.10
8541;DHT22;4308;51.294;6.590;2022-08-19T14:38:51;29.00;77.70
8541;DHT22;4308;51.294;6.590;2022-08-19T14:41:22;29.10;77.60
8541;DHT22;4308;51.294;6.590;2022-08-19T14:43:51;29.30;78.70
8541;DHT22;4308;51.294;6.590;2022-08-19T14:46:23;29.10;78.80
8541;DHT22;4308;51.294;6.590;2022-08-19T14:48:55;29.20;79.80
8541;DHT22;4308;51.294;6.590;2022-08-19T14:51:26;29.30;79.30
8541;DHT22;4308;51.294;6.590;2022-08-19T14:53:54;29.40;79.60
8541;DHT22;4308;51.294;6.590;2022-08-19T14:56:24;29.30;79.80
8541;DHT22;4308;51.294;6.590;2022-08-19T14:58:52;29.20;78.90
8541;DHT22;4308;51.294;6.590;2022-08-19T15:01:21;29.20;78.90
8541;DHT22;4308;51.294;6.590;2022-08-19T15:03:49;29.20;80.00
8541;DHT22;4308;51.294;6.590;2022-08-19T15:06:17;29.10;78.60
8541;DHT22;4308;51.294;6.590;2022-08-19T15:08:44;29.20;78.50
8541;DHT22;4308;51.294;6.590;2022-08-19T15:11:14;29.20;79.50
8541;DHT22;4308;51.294;6.590;2022-08-19T15:13:43;29.10;80.60
8541;DHT22;4308;51.294;6.590;2022-08-19T15:16:11;28.80;79.30
8541;DHT22;4308;51.294;6.590;2022-08-19T15:18:45;28.50;80.50
8541;DHT22;4308;51.294;6.590;2022-08-19T15:21:14;28.60;81.30
8541;DHT22;4308;51.294;6.590;2022-08-19T15:23:41;28.50;80.90
8541;DHT22;4308;51.294;6.590;2022-08-19T15:26:12;28.50;82.50
8541;DHT22;4308;51.294;6.590;2022-08-19T15:28:42;28.60;83.70
8541;DHT22;4308;51.294;6.590;2022-08-19T15:31:10;28.40;82.70
8541;DHT22;4308;51.294;6.590;2022-08-19T15:33:51;28.40;83.40
8541;DHT22;4308;51.294;6.590;2022-08-19T15:36:18;28.50;84.60
8541;DHT22;4308;51.294;6.590;2022-08-19T15:38:46;28.60;84.70
8541;DHT22;4308;51.294;6.590;2022-08-19T15:41:22;28.50;84.00
8541;DHT22;4308;51.294;6.590;2022-08-19T15:44:02;28.60;85.20
8541;DHT22;4308;51.294;6.590;2022-08-19T15:46:32;28.50;84.60
8541;DHT22;4308;51.294;6.590;2022-08-19T15:48:59;28.30;83.50
8541;DHT22;4308;51.294;6.590;2022-08-19T15:51:28;28.30;82.60
8541;DHT22;4308;51.294;6.590;2022-08-19T15:53:57;28.20;82.80
8541;DHT22;4308;51.294;6.590;2022-08-19T15:56:25;28.20;82.80
8541;DHT22;4308;51.294;6.590;2022-08-19T15:58:53;28.00;81.40
8541;DHT22;4308;51.294;6.590;2022-08-19T16:01:21;28.10;82.30
8541;DHT22;4308;51.294;6.590;2022-08-19T16:03:51;27.90;82.90
8541;DHT22;4308;51.294;6.590;2022-08-19T16:06:18;27.80;83.80
8541;DHT22;4308;51.294;6.590;2022-08-19T16:08:45;27.70;84.80
8541;DHT22;4308;51.294;6.590;2022-08-19T16:11:18;27.70;85.00
8541;DHT22;4308;51.294;6.590;2022-08-19T16:13:47;27.60;85.00
8541;DHT22;4308;51.294;6.590;2022-08-19T16:16:15;27.50;86.00
8541;DHT22;4308;51.294;6.590;2022-08-19T16:18:42;27.40;86.40
8541;DHT22;4308;51.294;6.590;2022-08-19T16:21:09;27.40;87.70
8541;DHT22;4308;51.294;6.590;2022-08-19T16:23:37;27.30;86.90
8541;DHT22;4308;51.294;6.590;2022-08-19T16:26:04;27.10;87.00
8541;DHT22;4308;51.294;6.590;2022-08-19T16:28:31;27.10;87.30
8541;DHT22;4308;51.294;6.590;2022-08-19T16:30:59;27.00;87.70
8541;DHT22;4308;51.294;6.590;2022-08-19T16:33:26;26.90;88.30
8541;DHT22;4308;51.294;6.590;2022-08-19T16:35:56;26.90;89.20
8541;DHT22;4308;51.294;6.590;2022-08-19T16:38:33;27.00;89.30
8541;DHT22;4308;51.294;6.590;2022-08-19T16:41:00;27.10;89.30
8541;DHT22;4308;51.294;6.590;2022-08-19T16:43:28;27.40;89.20
8541;DHT22;4308;51.294;6.590;2022-08-19T16:45:56;27.60;88.50
8541;DHT22;4308;51.294;6.590;2022-08-19T16:48:28;27.80;88.10
8541;DHT22;4308;51.294;6.590;2022-08-19T16:50:57;27.80;88.00
8541;DHT22;4308;51.294;6.590;2022-08-19T16:53:26;27.80;88.30
8541;DHT22;4308;51.294;6.590;2022-08-19T16:55:58;27.60;88.40
8541;DHT22;4308;51.294;6.590;2022-08-19T16:58:29;27.50;88.70
8541;DHT22;4308;51.294;6.590;2022-08-19T17:00:56;27.20;89.20
8541;DHT22;4308;51.294;6.590;2022-08-19T17:03:31;27.10;89.70
8541;DHT22;4308;51.294;6.590;2022-08-19T17:06:11;26.90;90.00
8541;DHT22;4308;51.294;6.590;2022-08-19T17:08:50;26.70;90.20
8541;DHT22;4308;51.294;6.590;2022-08-19T17:11:19;26.70;90.40
8541;DHT22;4308;51.294;6.590;2022-08-19T17:13:47;26.60;90.50
8541;DHT22;4308;51.294;6.590;2022-08-19T17:16:24;26.60;90.60
8541;DHT22;4308;51.294;6.590;2022-08-19T17:18:53;26.40;91.10
8541;DHT22;4308;51.294;6.590;2022-08-19T17:21:23;26.30;90.90
8541;DHT22;4308;51.294;6.590;2022-08-19T17:23:51;26.40;91.10
8541;DHT22;4308;51.294;6.590;2022-08-19T17:26:18;26.30;91.30
8541;DHT22;4308;51.294;6.590;2022-08-19T17:28:48;25.80;92.80
